Terminal Aerodrome Forecast
Issued by NWS

Home | Current Version | Previous Version | Text Only | Print | Product List | Glossary On
Versions: 1 2 3 4 5 6 7 8 9 10 11 12 13 14
488
FTUS42 KFFC 280520
TAFPDK
TAF
KPDK 280520Z 2806/2906 VRB03KT P6SM SKC
     FM281300 08005KT P6SM SKC
     FM281600 13006KT P6SM SCT050 SCT250
     FM290100 11004KT P6SM SCT250=

USA.gov is the U.S. government's official web portal to all federal, state and local government web resources and services.